Time;durP1;ratioP1;P1;durP2;ratioP2;P2;SDS_P1;SDS_P2;PMS_P1;PMS_P2;Temp;Humidity;BMP_temperature;BMP_pressure;BME280_temperature;BME280_humidity;BME280_pressure;Samples;Min_cycle;Max_cycle;Signal;HPM_P1;HPM_P2
2023/07/28 00:02:12;;;;;;;3.38;3.03;;;;;;;17.77;100.00;98619.34;5073153;28;20063;-90
2023/07/28 00:04:37;;;;;;;2.92;2.47;;;;;;;17.78;100.00;98615.75;5073180;28;20029;-91
2023/07/28 00:07:04;;;;;;;3.22;2.80;;;;;;;17.88;100.00;98629.72;5074588;28;20036;-91
2023/07/28 00:09:29;;;;;;;3.35;2.53;;;;;;;17.84;100.00;98620.44;5072992;28;20029;-91
2023/07/28 00:11:59;;;;;;;4.20;2.50;;;;;;;17.84;100.00;98628.34;5071763;28;20093;-90
2023/07/28 00:14:26;;;;;;;8.40;2.50;;;;;;;17.83;100.00;98617.00;5054972;28;20516;-90
2023/07/28 00:16:52;;;;;;;4.03;2.65;;;;;;;17.90;100.00;98625.13;5054631;28;20051;-91
2023/07/28 00:19:19;;;;;;;7.00;2.38;;;;;;;17.73;100.00;98597.69;5071854;28;20071;-90
2023/07/28 00:21:44;;;;;;;3.13;2.72;;;;;;;17.86;100.00;98619.31;5071530;28;20044;-90
2023/07/28 00:24:09;;;;;;;2.83;2.63;;;;;;;17.89;100.00;98616.41;5071656;28;20027;-91
2023/07/28 00:26:35;;;;;;;3.38;2.40;;;;;;;17.85;100.00;98609.75;5054490;28;20040;-91
2023/07/28 00:29:00;;;;;;;3.00;2.70;;;;;;;17.89;100.00;98616.41;5071515;28;20067;-91
2023/07/28 00:31:25;;;;;;;4.10;2.80;;;;;;;17.75;100.00;98584.44;5054625;28;20068;-93
2023/07/28 00:33:51;;;;;;;3.33;2.00;;;;;;;17.86;100.00;98603.50;5034327;28;20061;-92
2023/07/28 00:36:16;;;;;;;5.22;2.40;;;;;;;17.75;100.00;98590.53;5018207;28;20068;-91
2023/07/28 00:38:42;;;;;;;3.22;2.50;;;;;;;17.76;100.00;98596.63;5034396;28;20504;-91
2023/07/28 00:41:07;;;;;;;2.72;2.53;;;;;;;17.69;100.00;98602.41;5034658;28;20033;-91
2023/07/28 00:43:32;;;;;;;3.45;2.60;;;;;;;17.44;100.00;98567.03;5049412;28;20136;-91
2023/07/28 00:45:58;;;;;;;3.30;2.83;;;;;;;17.55;100.00;98571.28;5054364;28;20043;-91
2023/07/28 00:48:25;;;;;;;4.00;2.80;;;;;;;17.62;100.00;98590.81;5054383;28;20565;-91
2023/07/28 00:50:51;;;;;;;2.65;2.40;;;;;;;17.68;100.00;98590.22;5071064;28;20029;-91
2023/07/28 00:53:16;;;;;;;7.00;3.22;;;;;;;17.72;100.00;98590.78;5054361;28;20604;-91
2023/07/28 00:55:42;;;;;;;4.53;2.92;;;;;;;17.69;100.00;98578.72;5054014;28;20123;-91
2023/07/28 00:58:08;;;;;;;5.25;3.13;;;;;;;17.58;100.00;98576.28;5054295;28;20029;-91
2023/07/28 01:00:34;;;;;;;3.75;3.40;;;;;;;17.66;100.00;98575.56;5053835;28;20175;-91
2023/07/28 01:02:59;;;;;;;2.90;2.60;;;;;;;17.30;100.00;98527.97;5054211;28;20064;-91
2023/07/28 01:05:33;;;;;;;3.85;3.30;;;;;;;17.64;100.00;98583.59;5066561;28;20037;-91
2023/07/28 01:08:05;;;;;;;3.70;2.70;;;;;;;17.42;100.00;98553.16;5072029;28;20544;-91
2023/07/28 01:10:32;;;;;;;3.85;3.03;;;;;;;17.62;100.00;98574.19;5071752;28;20039;-92
2023/07/28 01:12:58;;;;;;;3.78;3.17;;;;;;;17.61;100.00;98562.84;5071747;28;20028;-91
2023/07/28 01:15:24;;;;;;;3.20;2.90;;;;;;;17.60;100.00;98566.41;5071675;28;20452;-91
2023/07/28 01:17:50;;;;;;;3.65;3.35;;;;;;;17.63;100.00;98563.50;5071681;28;20032;-91
2023/07/28 01:20:16;;;;;;;6.30;3.60;;;;;;;17.39;100.00;98521.03;5071719;28;20466;-91
2023/07/28 01:22:59;;;;;;;3.85;3.10;;;;;;;17.70;100.00;98575.13;5071446;28;20055;-91
2023/07/28 01:25:48;;;;;;;3.40;3.10;;;;;;;17.74;100.00;98565.19;5071609;28;20128;-91
2023/07/28 01:28:16;;;;;;;3.60;3.30;;;;;;;17.71;100.00;98557.53;5071745;28;20448;-91
2023/07/28 01:30:41;;;;;;;5.75;3.40;;;;;;;17.69;100.00;98562.91;5071375;28;20033;-91
2023/07/28 01:33:08;;;;;;;3.50;3.08;;;;;;;17.67;100.00;98550.88;5071576;28;20396;-91
2023/07/28 01:35:33;;;;;;;4.80;3.45;;;;;;;17.73;100.00;98552.09;5071290;28;20420;-90
2023/07/28 01:37:59;;;;;;;3.63;3.00;;;;;;;17.64;100.00;98541.47;5071308;28;20079;-91
2023/07/28 01:40:24;;;;;;;5.10;3.50;;;;;;;17.71;100.00;98550.44;5071500;28;20123;-91
2023/07/28 01:42:49;;;;;;;3.90;3.22;;;;;;;17.62;100.00;98539.97;5070926;28;20049;-91
2023/07/28 01:45:15;;;;;;;3.58;3.28;;;;;;;17.61;100.00;98541.75;5071352;28;20040;-91
2023/07/28 01:47:40;;;;;;;4.55;3.28;;;;;;;17.45;100.00;98523.94;5070991;28;20037;-91
2023/07/28 01:50:06;;;;;;;3.50;3.20;;;;;;;17.43;100.00;98525.03;5071313;28;20025;-90
2023/07/28 01:52:31;;;;;;;4.07;2.97;;;;;;;17.44;100.00;98543.34;5071019;28;20028;-91
2023/07/28 01:54:57;;;;;;;3.72;3.38;;;;;;;17.43;100.00;98544.28;5070944;28;20086;-91
2023/07/28 01:57:24;;;;;;;3.45;3.15;;;;;;;17.43;100.00;98552.19;5071115;28;20043;-91
2023/07/28 01:59:49;;;;;;;3.22;2.92;;;;;;;17.44;100.00;98540.69;5072239;28;20028;-90
2023/07/28 02:02:15;;;;;;;4.78;2.95;;;;;;;17.45;100.00;98538.91;5071000;28;20098;-91
2023/07/28 02:04:40;;;;;;;3.00;2.70;;;;;;;17.35;100.00;98515.22;5070731;28;20556;-91
2023/07/28 02:07:05;;;;;;;3.30;3.00;;;;;;;17.58;100.00;98555.22;5070450;28;20028;-91
2023/07/28 02:09:31;;;;;;;3.15;2.85;;;;;;;17.56;100.00;98553.69;5070793;28;20029;-90
2023/07/28 02:11:56;;;;;;;3.25;2.95;;;;;;;17.49;100.00;98523.63;5070728;28;20056;-90
2023/07/28 02:14:21;;;;;;;3.42;2.70;;;;;;;17.42;100.00;98518.94;5070980;28;20032;-90
2023/07/28 02:16:47;;;;;;;2.67;2.47;;;;;;;17.63;100.00;98552.16;5070506;28;20028;-91
2023/07/28 02:19:12;;;;;;;3.40;3.10;;;;;;;17.49;100.00;98523.63;5070796;28;20052;-91
2023/07/28 02:21:37;;;;;;;4.93;3.35;;;;;;;17.48;100.00;98522.78;5070354;28;20032;-90
2023/07/28 02:24:03;;;;;;;3.55;2.78;;;;;;;17.61;100.00;98548.81;5070453;28;20089;-91
2023/07/28 02:26:28;;;;;;;3.50;3.20;;;;;;;17.58;100.00;98544.69;5070762;28;20107;-91
2023/07/28 02:28:54;;;;;;;3.95;3.10;;;;;;;17.57;100.00;98539.53;5070523;28;20503;-91
2023/07/28 02:31:19;;;;;;;4.38;3.55;;;;;;;17.54;100.00;98527.50;5070662;28;20039;-91
2023/07/28 02:33:44;;;;;;;4.90;3.88;;;;;;;17.55;100.00;98538.88;5070370;28;20035;-91
2023/07/28 02:36:10;;;;;;;5.07;4.25;;;;;;;17.54;100.00;98540.66;5070506;28;20067;-91
2023/07/28 02:38:35;;;;;;;4.85;3.90;;;;;;;17.41;100.00;98513.81;5070401;28;20025;-91
2023/07/28 02:41:03;;;;;;;5.93;3.53;;;;;;;17.32;100.00;98506.75;5070460;28;20478;-91
2023/07/28 02:43:28;;;;;;;4.53;4.13;;;;;;;17.48;100.00;98538.59;5070328;28;20143;-91
2023/07/28 02:45:55;;;;;;;5.00;4.03;;;;;;;17.44;100.00;98526.69;5070315;28;20112;-90
2023/07/28 02:48:21;;;;;;;4.00;3.70;;;;;;;17.48;100.00;98522.78;5070614;28;20024;-91
2023/07/28 02:50:47;;;;;;;5.05;4.55;;;;;;;17.42;100.00;98516.31;5070295;28;20033;-91
2023/07/28 02:53:16;;;;;;;7.80;6.72;;;;;;;17.34;100.00;98503.03;5070363;28;20506;-91
2023/07/28 02:55:45;;;;;;;11.15;10.15;;;;;;;17.49;100.00;98521.00;5071383;28;20069;-92
2023/07/28 02:58:10;;;;;;;24.88;22.23;;;;;;;17.40;100.00;98525.31;5070444;28;20469;-91
2023/07/28 03:00:43;;;;;;;16.15;14.57;;;;;;;17.25;100.00;98506.50;5070367;28;20039;-91
2023/07/28 03:03:10;;;;;;;12.57;11.15;;;;;;;17.30;100.00;98530.59;5068910;28;20520;-91
2023/07/28 03:05:36;;;;;;;9.18;7.35;;;;;;;17.32;100.00;98526.03;5052238;28;20561;-92
2023/07/28 03:08:02;;;;;;;7.05;5.80;;;;;;;17.25;100.00;98524.94;5052036;28;20393;-91
2023/07/28 03:10:27;;;;;;;5.68;5.18;;;;;;;17.25;100.00;98524.09;5068988;28;20032;-91
2023/07/28 03:12:53;;;;;;;6.43;5.40;;;;;;;17.20;100.00;98517.47;5051913;28;20481;-91
2023/07/28 03:15:19;;;;;;;6.03;5.45;;;;;;;17.20;100.00;98520.09;5052269;28;20025;-90
2023/07/28 03:17:45;;;;;;;6.32;5.72;;;;;;;17.19;100.00;98528.97;5052093;28;20037;-91
2023/07/28 03:20:10;;;;;;;6.63;5.55;;;;;;;17.17;100.00;98523.00;5072718;28;20029;-90
2023/07/28 03:22:36;;;;;;;6.78;5.75;;;;;;;17.19;100.00;98530.75;5055977;28;20044;-89
2023/07/28 03:25:01;;;;;;;6.32;5.72;;;;;;;17.05;100.00;98525.94;5055895;28;20603;-88
2023/07/28 03:27:26;;;;;;;7.78;5.75;;;;;;;16.96;100.00;98517.91;5056127;28;20032;-89
2023/07/28 03:29:51;;;;;;;5.75;5.15;;;;;;;17.10;100.00;98521.91;5055694;28;20037;-90
2023/07/28 03:32:17;;;;;;;6.03;5.43;;;;;;;17.16;100.00;98531.03;5055909;28;20032;-91
2023/07/28 03:34:42;;;;;;;6.30;5.70;;;;;;;17.15;100.00;98529.38;5067839;28;20037;-90
2023/07/28 03:37:08;;;;;;;6.60;6.00;;;;;;;17.15;100.00;98522.31;5073799;28;20120;-91
2023/07/28 03:39:34;;;;;;;6.82;6.25;;;;;;;17.18;100.00;98519.38;5073754;28;20097;-91
2023/07/28 03:41:59;;;;;;;7.35;6.70;;;;;;;17.15;100.00;98524.97;5073281;28;20033;-91
2023/07/28 03:44:25;;;;;;;7.05;6.35;;;;;;;17.14;100.00;98522.44;5073425;28;20052;-91
2023/07/28 03:46:50;;;;;;;7.35;6.65;;;;;;;17.15;100.00;98519.69;5073282;28;20029;-91
2023/07/28 03:49:15;;;;;;;8.30;6.65;;;;;;;17.11;100.00;98514.84;5074743;28;20115;-91
2023/07/28 03:51:41;;;;;;;8.07;6.82;;;;;;;17.01;100.00;98496.44;5071927;28;20113;-91
2023/07/28 03:54:06;;;;;;;7.65;6.90;;;;;;;17.14;100.00;98512.75;5072161;28;20121;-91
2023/07/28 03:56:31;;;;;;;8.00;7.18;;;;;;;17.08;100.00;98499.34;5072087;28;20043;-90
2023/07/28 03:58:57;;;;;;;8.05;7.30;;;;;;;17.13;100.00;98505.00;5031743;28;20042;-91
2023/07/28 04:01:22;;;;;;;7.45;6.65;;;;;;;17.20;100.00;98500.84;5015517;28;20038;-91
2023/07/28 04:03:48;;;;;;;9.55;8.65;;;;;;;17.15;100.00;98489.91;5015371;28;20043;-91
2023/07/28 04:06:13;;;;;;;8.25;7.45;;;;;;;17.19;100.00;98494.75;5015565;28;20038;-90
2023/07/28 04:08:42;;;;;;;8.40;7.63;;;;;;;17.26;100.00;98499.44;5015546;28;20400;-90
2023/07/28 04:11:07;;;;;;;8.02;7.10;;;;;;;17.28;100.00;98493.09;5015425;28;20037;-90
2023/07/28 04:13:36;;;;;;;7.78;7.13;;;;;;;17.30;100.00;98485.03;5015277;28;20152;-90
2023/07/28 04:16:02;;;;;;;8.50;7.70;;;;;;;17.24;100.00;98475.09;5015092;28;20031;-90
2023/07/28 04:18:27;;;;;;;8.85;8.00;;;;;;;17.30;100.00;98485.03;5015134;28;20404;-90
2023/07/28 04:20:53;;;;;;;9.23;8.32;;;;;;;17.25;100.00;98482.84;5031528;28;20037;-91
2023/07/28 04:23:18;;;;;;;7.40;6.80;;;;;;;17.34;100.00;98487.22;5030331;28;20033;-91
2023/07/28 04:25:44;;;;;;;8.18;7.47;;;;;;;17.37;100.00;98481.69;5051282;28;20060;-91
2023/07/28 04:28:09;;;;;;;7.28;6.68;;;;;;;17.32;100.00;98470.78;5034873;28;20040;-91
2023/07/28 04:30:35;;;;;;;7.50;6.70;;;;;;;17.38;100.00;98483.34;5062623;28;20054;-91
2023/07/28 04:33:00;;;;;;;7.10;6.50;;;;;;;17.48;100.00;98490.38;5072346;28;20052;-91
2023/07/28 04:35:25;;;;;;;7.18;6.60;;;;;;;17.39;100.00;98471.84;5072479;28;20033;-91
2023/07/28 04:37:51;;;;;;;7.03;6.38;;;;;;;17.51;100.00;98476.94;5072489;28;20388;-91
2023/07/28 04:40:16;;;;;;;6.60;6.03;;;;;;;17.58;100.00;98485.94;5072644;28;20036;-91
2023/07/28 04:42:42;;;;;;;8.13;7.30;;;;;;;17.54;100.00;98490.66;5071085;28;20049;-91
2023/07/28 04:45:08;;;;;;;7.13;6.13;;;;;;;17.49;100.00;98476.25;5054346;28;20064;-91
2023/07/28 04:47:33;;;;;;;5.82;5.32;;;;;;;17.61;100.00;98489.09;5054379;28;20100;-91
2023/07/28 04:49:59;;;;;;;6.53;5.93;;;;;;;17.61;100.00;98486.47;5054111;28;20032;-91
2023/07/28 04:52:24;;;;;;;5.75;5.25;;;;;;;17.50;100.00;98470.84;5054270;28;20094;-91
2023/07/28 04:54:49;;;;;;;5.57;5.07;;;;;;;17.56;100.00;98472.06;5054192;28;20059;-92
2023/07/28 04:57:15;;;;;;;5.35;4.95;;;;;;;17.69;100.00;98491.00;5054214;28;20047;-90
2023/07/28 04:59:40;;;;;;;4.80;4.30;;;;;;;17.71;100.00;98479.34;5054219;28;20162;-90
2023/07/28 05:02:06;;;;;;;4.50;4.10;;;;;;;17.62;100.00;98471.50;5070926;28;20109;-91
2023/07/28 05:04:31;;;;;;;3.92;3.63;;;;;;;17.76;100.00;98483.38;5054101;28;20146;-91
2023/07/28 05:06:57;;;;;;;3.70;3.40;;;;;;;17.71;100.00;98478.53;5053739;28;20036;-91
2023/07/28 05:09:22;;;;;;;3.42;3.05;;;;;;;17.74;100.00;98485.28;5070556;28;20140;-91
2023/07/28 05:11:47;;;;;;;3.58;3.05;;;;;;;17.63;100.00;98468.72;5053681;28;20036;-91
2023/07/28 05:14:13;;;;;;;3.83;3.40;;;;;;;17.75;100.00;98484.38;5065813;28;20072;-91
2023/07/28 05:16:39;;;;;;;3.63;3.28;;;;;;;17.80;100.00;98490.03;5071684;28;20031;-91
2023/07/28 05:19:06;;;;;;;4.18;3.42;;;;;;;17.78;100.00;98482.28;5071465;28;20029;-91
2023/07/28 05:21:32;;;;;;;5.28;3.78;;;;;;;17.77;100.00;98480.59;5072194;28;20498;-91
2023/07/28 05:23:57;;;;;;;3.28;2.97;;;;;;;17.73;100.00;98471.28;5071694;28;20037;-91
2023/07/28 05:26:22;;;;;;;3.75;3.42;;;;;;;17.86;100.00;98492.06;5071645;28;20100;-91
2023/07/28 05:28:48;;;;;;;3.22;3.03;;;;;;;17.85;100.00;98485.97;5071364;28;20099;-91
2023/07/28 05:31:15;;;;;;;2.90;2.70;;;;;;;17.72;100.00;98469.66;5071428;28;20024;-91
2023/07/28 05:33:40;;;;;;;3.20;2.90;;;;;;;17.71;100.00;98468.81;5071379;28;20119;-91
2023/07/28 05:36:06;;;;;;;3.47;3.17;;;;;;;17.51;100.00;98437.44;5071348;28;20616;-91
2023/07/28 05:38:31;;;;;;;5.43;2.90;;;;;;;17.89;100.00;98492.59;5071576;28;20040;-91
2023/07/28 05:41:00;;;;;;;2.65;2.45;;;;;;;17.87;100.00;98484.03;5070506;28;20388;-91
2023/07/28 05:43:25;;;;;;;2.40;2.15;;;;;;;17.97;100.00;98497.16;5072898;28;20070;-91
2023/07/28 05:45:51;;;;;;;3.15;2.00;;;;;;;17.83;100.00;98466.88;5049630;28;20033;-91
2023/07/28 05:48:16;;;;;;;1.98;1.88;;;;;;;18.02;100.00;98497.53;5033197;28;20047;-91
2023/07/28 05:50:41;;;;;;;2.30;2.10;;;;;;;18.07;100.00;98497.91;5033347;28;20047;-91
2023/07/28 05:53:07;;;;;;;2.10;1.90;;;;;;;18.02;100.00;98491.44;5033068;28;20468;-91
2023/07/28 05:55:32;;;;;;;1.92;1.73;;;;;;;18.07;100.00;98499.72;5033197;28;20484;-90
2023/07/28 05:57:58;;;;;;;2.33;1.80;;;;;;;18.11;100.00;98498.44;5032993;28;20663;-91
2023/07/28 06:00:23;;;;;;;2.22;2.00;;;;;;;18.14;100.00;98500.81;5033118;28;20045;-91
2023/07/28 06:02:49;;;;;;;2.13;1.92;;;;;;;18.15;100.00;98503.28;5033042;28;20068;-92
2023/07/28 06:05:14;;;;;;;2.40;2.03;;;;;;;18.10;100.00;98497.63;5033044;28;20520;-91
2023/07/28 06:07:40;;;;;;;1.90;1.80;;;;;;;18.25;100.00;98499.78;5033076;28;20448;-92
2023/07/28 06:10:06;;;;;;;2.00;1.90;;;;;;;18.27;100.00;98503.09;5032721;28;20040;-92
2023/07/28 06:12:31;;;;;;;2.63;2.42;;;;;;;18.21;100.00;98488.69;5032808;28;20481;-91
2023/07/28 06:14:56;;;;;;;2.67;1.95;;;;;;;18.35;100.00;98500.53;5032589;28;20025;-92
2023/07/28 06:17:22;;;;;;;2.03;1.90;;;;;;;18.40;100.00;98493.00;5058793;28;20484;-92
2023/07/28 06:19:47;;;;;;;4.32;2.08;;;;;;;18.54;100.00;98504.84;5070736;28;20362;-92
2023/07/28 06:22:13;;;;;;;2.33;2.03;;;;;;;18.59;100.00;98505.22;5070559;28;20032;-92
2023/07/28 06:24:38;;;;;;;1.65;1.55;;;;;;;18.51;100.00;98484.88;5070792;28;20480;-92
2023/07/28 06:27:07;;;;;;;2.17;1.98;;;;;;;18.76;100.00;98514.16;5070362;28;20032;-92
2023/07/28 06:29:33;;;;;;;1.92;1.80;;;;;;;18.85;100.00;98500.06;5070629;28;20115;-92
2023/07/28 06:31:58;;;;;;;1.63;1.48;;;;;;;18.91;100.00;98494.97;5070312;28;20127;-92
2023/07/28 06:34:24;;;;;;;1.73;1.40;;;;;;;18.73;100.00;98466.97;5070785;28;20028;-92
2023/07/28 06:36:49;;;;;;;2.28;1.48;;;;;;;19.02;100.00;98501.84;5070672;28;20031;-93
2023/07/28 06:39:14;;;;;;;1.60;1.50;;;;;;;19.03;100.00;98502.66;5070443;28;20036;-92
2023/07/28 06:41:40;;;;;;;1.52;1.42;;;;;;;19.04;100.00;98506.97;5070585;28;20102;-92
2023/07/28 06:44:05;;;;;;;2.25;1.45;;;;;;;19.05;100.00;98511.28;5070247;28;20053;-92
2023/07/28 06:46:31;;;;;;;1.70;1.20;;;;;;;19.04;100.00;98509.59;5070310;28;20116;-92
2023/07/28 06:48:56;;;;;;;2.35;1.30;;;;;;;19.02;100.00;98516.84;5070455;28;20033;-92
2023/07/28 06:51:22;;;;;;;1.63;1.40;;;;;;;19.00;100.00;98514.34;5070577;28;20476;-92
2023/07/28 06:53:47;;;;;;;2.15;1.23;;;;;;;18.96;100.00;98513.00;5040949;28;20445;-93
2023/07/28 06:56:12;;;;;;;1.65;1.48;;;;;;;18.99;100.00;98517.97;5074250;28;20097;-92
2023/07/28 06:58:38;;;;;;;1.30;1.20;;;;;;;19.04;100.00;98513.06;5074508;28;20029;-92
2023/07/28 07:01:03;;;;;;;1.67;1.10;;;;;;;18.92;100.00;98490.56;5073890;28;20032;-92
2023/07/28 07:03:28;;;;;;;2.38;1.10;;;;;;;19.12;100.00;98517.59;5074604;28;20048;-92
2023/07/28 07:05:54;;;;;;;1.25;1.17;;;;;;;19.12;100.00;98526.31;5074187;28;20557;-92
2023/07/28 07:08:19;;;;;;;1.77;1.10;;;;;;;19.11;100.00;98534.41;5074364;28;20055;-92
2023/07/28 07:10:52;;;;;;;1.15;1.02;;;;;;;19.11;100.00;98537.88;5074246;28;20063;-92
2023/07/28 07:13:18;;;;;;;2.35;1.38;;;;;;;19.12;100.00;98542.16;5057168;28;20123;-92
2023/07/28 07:15:44;;;;;;;1.30;1.20;;;;;;;18.96;100.00;98520.91;5073847;28;20115;-93
2023/07/28 07:18:09;;;;;;;1.35;1.25;;;;;;;18.94;100.00;98512.34;5057378;28;20127;-93
2023/07/28 07:20:36;;;;;;;1.77;1.20;;;;;;;19.14;100.00;98542.03;5073999;28;20429;-92
2023/07/28 07:23:01;;;;;;;1.20;1.10;;;;;;;19.15;100.00;98538.41;5073787;28;20028;-92
2023/07/28 07:25:26;;;;;;;1.27;1.10;;;;;;;19.10;100.00;98528.31;5074047;28;20056;-92
2023/07/28 07:27:52;;;;;;;1.08;1.08;;;;;;;19.20;100.00;98541.41;5074022;28;20032;-92
2023/07/28 07:30:17;;;;;;;1.48;1.00;;;;;;;19.22;100.00;98547.38;5073576;28;20055;-91
2023/07/28 07:32:43;;;;;;;1.13;1.10;;;;;;;19.22;100.00;98543.91;5073707;28;20032;-91
2023/07/28 07:35:09;;;;;;;1.02;1.00;;;;;;;19.23;100.00;98550.84;5073718;28;20135;-91
2023/07/28 07:37:34;;;;;;;2.85;1.20;;;;;;;19.07;100.00;98527.78;5073631;28;20029;-91
2023/07/28 07:40:01;;;;;;;1.58;1.10;;;;;;;19.23;100.00;98556.94;5073418;28;20109;-91
2023/07/28 07:42:27;;;;;;;1.80;0.93;;;;;;;18.94;100.00;98505.25;5073385;28;20060;-91
2023/07/28 07:44:52;;;;;;;0.95;0.90;;;;;;;19.13;100.00;98537.72;5073501;28;20033;-91
2023/07/28 07:47:18;;;;;;;1.13;1.08;;;;;;;19.17;100.00;98553.13;5074072;28;20112;-91
2023/07/28 07:49:43;;;;;;;1.20;1.10;;;;;;;19.16;100.00;98548.78;5074065;28;20028;-91
2023/07/28 07:52:09;;;;;;;1.25;1.05;;;;;;;19.13;100.00;98535.06;5073502;28;20181;-92
2023/07/28 07:54:35;;;;;;;0.98;0.98;;;;;;;19.31;100.00;98553.53;5073581;28;20498;-91
2023/07/28 07:57:00;;;;;;;1.02;0.88;;;;;;;19.34;100.00;98555.84;5073218;28;20024;-91
2023/07/28 07:59:28;;;;;;;2.63;1.23;;;;;;;19.34;100.00;98558.50;5073222;28;20118;-90
2023/07/28 08:01:54;;;;;;;1.77;1.10;;;;;;;19.37;100.00;98556.38;5074728;28;20031;-91
2023/07/28 08:04:19;;;;;;;1.08;1.08;;;;;;;19.16;100.00;98511.84;5073726;28;20025;-91
2023/07/28 08:06:44;;;;;;;1.08;0.98;;;;;;;19.40;100.00;98568.47;5073251;28;20017;-91
2023/07/28 08:09:10;;;;;;;2.35;1.40;;;;;;;19.14;100.00;98516.47;5071578;28;20036;-91
2023/07/28 08:11:35;;;;;;;1.02;1.02;;;;;;;19.39;100.00;98561.53;5072772;28;20062;-90
2023/07/28 08:14:00;;;;;;;2.63;1.00;;;;;;;19.47;100.00;98556.31;5073892;28;20036;-91
2023/07/28 08:16:26;;;;;;;1.00;1.00;;;;;;;19.58;100.00;98548.09;5091920;28;20597;-91
2023/07/28 08:18:51;;;;;;;1.67;1.58;;;;;;;19.77;100.00;98555.03;5091980;28;20493;-90
2023/07/28 08:21:17;;;;;;;1.75;1.17;;;;;;;19.93;100.00;98560.41;5091359;28;20040;-91
2023/07/28 08:23:42;;;;;;;1.17;1.10;;;;;;;19.97;100.00;98552.97;5091442;28;20542;-91
2023/07/28 08:26:08;;;;;;;2.15;1.33;;;;;;;19.96;100.00;98534.63;5074339;28;20067;-92
2023/07/28 08:28:59;;;;;;;1.92;1.40;;;;;;;20.09;100.00;98572.03;5091135;28;20043;-95
2023/07/28 08:31:24;;;;;;;1.73;1.63;;;;;;;19.81;100.00;98535.25;5034401;28;20048;-87
2023/07/28 08:33:49;;;;;;;2.55;1.60;;;;;;;20.03;100.00;98538.31;5051215;28;20041;-90
2023/07/28 08:36:15;;;;;;;2.58;1.88;;;;;;;20.28;100.00;98537.41;5050886;28;20120;-89
2023/07/28 08:38:41;;;;;;;1.65;1.55;;;;;;;20.64;100.00;98571.59;5050991;28;20029;-88
2023/07/28 08:41:06;;;;;;;1.73;1.63;;;;;;;20.58;100.00;98530.75;5050564;28;20576;-89
2023/07/28 08:43:31;;;;;;;2.30;1.60;;;;;;;20.81;100.00;98557.41;5050704;28;20139;-88
2023/07/28 08:45:57;;;;;;;1.80;1.70;;;;;;;20.85;100.00;98566.66;5051018;28;20213;-89
2023/07/28 08:48:23;;;;;;;3.47;1.80;;;;;;;20.83;100.00;98566.00;5068361;28;20040;-89
2023/07/28 08:50:49;;;;;;;2.03;1.83;;;;;;;20.69;100.00;98550.78;5071052;28;20366;-89
2023/07/28 08:53:14;;;;;;;1.70;1.60;;;;;;;20.78;100.00;98572.78;5070134;28;20050;-91
2023/07/28 08:55:39;;;;;;;2.47;1.65;;;;;;;20.74;100.00;98567.00;5070511;28;20099;-89
2023/07/28 08:58:18;;;;;;;1.65;1.55;;;;;;;20.78;100.00;98568.34;5050714;28;20036;-89
2023/07/28 09:00:46;;;;;;;1.70;1.60;;;;;;;20.87;100.00;98553.28;5070805;28;20039;-87
2023/07/28 09:03:12;;;;;;;1.70;1.60;;;;;;;21.04;100.00;98548.84;5072294;28;20474;-87
2023/07/28 09:05:40;;;;;;;1.58;1.48;;;;;;;21.27;100.00;98572.81;5073113;28;20059;-87
2023/07/28 09:08:05;;;;;;;2.92;1.70;;;;;;;21.33;100.00;98561.59;5071362;28;20464;-88
2023/07/28 09:10:42;;;;;;;1.67;1.58;;;;;;;21.38;100.00;98578.66;5071993;28;20115;-87
2023/07/28 09:13:10;;;;;;;1.73;1.63;;;;;;;21.34;100.00;98577.31;5072633;28;20033;-88
2023/07/28 09:15:36;;;;;;;1.60;1.50;;;;;;;21.33;100.00;98588.09;5072193;28;20020;-86
2023/07/28 09:18:01;;;;;;;3.40;1.90;;;;;;;21.22;100.00;98575.97;5072678;28;20036;-87
2023/07/28 09:20:35;;;;;;;1.95;1.50;;;;;;;21.25;100.00;98588.88;5072487;28;20029;-89
2023/07/28 09:23:01;;;;;;;1.70;1.60;;;;;;;21.23;100.00;98568.84;5071563;28;20055;-89
2023/07/28 09:25:29;;;;;;;1.85;1.75;;;;;;;21.39;100.00;98560.94;5070669;28;20021;-88
2023/07/28 09:27:54;;;;;;;1.98;1.88;;;;;;;21.76;100.00;98572.81;5070944;28;20399;-88
2023/07/28 09:30:21;;;;;;;2.08;1.98;;;;;;;22.10;100.00;98569.88;5070547;28;20031;-89
2023/07/28 09:32:52;;;;;;;2.25;2.05;;;;;;;22.10;100.00;98528.28;5070941;28;20376;-88
2023/07/28 09:35:19;;;;;;;3.15;2.17;;;;;;;22.56;100.00;98562.91;5071550;28;20146;-89
2023/07/28 09:37:49;;;;;;;1.85;1.75;;;;;;;22.94;100.00;98567.53;5071042;28;20049;-89
2023/07/28 09:40:22;;;;;;;1.90;1.80;;;;;;;23.24;100.00;98565.78;5072361;28;20052;-91
2023/07/28 09:42:49;;;;;;;1.85;1.75;;;;;;;23.36;100.00;98545.78;5071123;28;20059;-89
2023/07/28 09:45:16;;;;;;;2.47;1.85;;;;;;;23.60;100.00;98564.16;5072312;28;20032;-89
2023/07/28 09:47:44;;;;;;;2.00;1.90;;;;;;;23.57;100.00;98569.81;5072306;28;20108;-87
2023/07/28 09:50:13;;;;;;;2.08;1.98;;;;;;;23.22;99.49;98518.16;5072434;28;20029;-91
2023/07/28 09:52:42;;;;;;;2.40;2.20;;;;;;;23.41;99.65;98568.13;5071276;28;20570;-89
2023/07/28 09:55:11;;;;;;;2.20;2.00;;;;;;;23.33;100.00;98576.16;5070545;28;20115;-89
2023/07/28 09:57:44;;;;;;;2.20;2.10;;;;;;;23.27;100.00;98581.38;5070999;28;20472;-89
2023/07/28 10:00:12;;;;;;;2.13;2.03;;;;;;;23.16;99.90;98553.41;5089602;28;20032;-90
2023/07/28 10:02:39;;;;;;;3.05;2.83;;;;;;;23.05;98.90;98554.66;5072386;28;20044;-90
2023/07/28 10:05:06;;;;;;;3.00;2.80;;;;;;;23.05;98.20;98551.16;5052729;28;20419;-90
2023/07/28 10:07:34;;;;;;;2.60;2.40;;;;;;;23.00;97.69;98542.91;5049929;28;20037;-90
2023/07/28 10:10:00;;;;;;;3.15;2.95;;;;;;;23.10;97.58;98552.28;5069239;28;20040;-89
2023/07/28 10:12:26;;;;;;;2.53;2.30;;;;;;;23.25;96.89;98540.88;5069076;28;20129;-89
2023/07/28 10:15:05;;;;;;;5.93;3.00;;;;;;;23.40;94.94;98553.19;5028934;28;20077;-89
2023/07/28 10:17:34;;;;;;;2.40;2.20;;;;;;;23.44;94.43;98545.69;5029160;28;20100;-89
2023/07/28 10:20:08;;;;;;;3.00;2.42;;;;;;;23.55;93.82;98547.91;5012875;28;20155;-90
2023/07/28 10:22:43;;;;;;;2.40;2.22;;;;;;;23.61;92.91;98549.03;5012779;28;20037;-89
2023/07/28 10:25:10;;;;;;;2.20;2.00;;;;;;;23.62;91.06;98534.72;5012899;28;20151;-89
2023/07/28 10:27:45;;;;;;;2.30;2.10;;;;;;;23.87;91.19;98557.41;5012741;28;20076;-89
2023/07/28 10:30:12;;;;;;;1.92;1.80;;;;;;;23.76;90.08;98541.06;5029195;28;20064;-89
2023/07/28 10:32:39;;;;;;;2.10;1.98;;;;;;;23.82;90.65;98562.44;5012868;28;20038;-89
2023/07/28 10:35:08;;;;;;;2.08;1.90;;;;;;;23.70;90.52;98539.97;5012990;28;20400;-88
2023/07/28 10:37:36;;;;;;;2.55;2.25;;;;;;;23.71;90.33;98549.59;5027466;28;20053;-92
2023/07/28 10:40:28;;;;;;;2.20;2.00;;;;;;;23.65;90.16;98551.16;5010012;28;20046;-90
2023/07/28 10:42:54;;;;;;;1.92;1.83;;;;;;;23.79;89.96;98568.13;4998261;28;20045;-89
2023/07/28 10:45:22;;;;;;;2.17;1.98;;;;;;;23.95;89.18;98566.31;5029155;28;20100;-90
2023/07/28 10:47:48;;;;;;;2.65;2.33;;;;;;;23.96;88.20;98559.97;5012841;28;20036;-89
2023/07/28 10:50:13;;;;;;;2.10;2.00;;;;;;;24.06;88.29;98556.03;5029186;28;20029;-88
2023/07/28 10:52:43;;;;;;;2.65;2.10;;;;;;;24.18;87.88;98556.38;5043787;28;20045;-89
2023/07/28 10:55:22;;;;;;;2.58;2.38;;;;;;;24.20;87.52;98570.34;5050346;28;20029;-89
2023/07/28 10:57:49;;;;;;;2.13;1.92;;;;;;;24.06;88.02;98568.50;5050212;28;20116;-89
2023/07/28 11:00:18;;;;;;;2.00;1.90;;;;;;;23.65;88.53;98526.41;5050216;28;20385;-89
2023/07/28 11:02:53;;;;;;;2.60;2.40;;;;;;;23.69;89.39;98561.44;5051864;28;20028;-89
2023/07/28 11:05:27;;;;;;;2.75;2.40;;;;;;;23.43;90.07;98541.41;5051630;28;20082;-87
2023/07/28 11:07:58;;;;;;;4.70;2.35;;;;;;;23.56;91.05;98573.50;5051596;28;20048;-87
2023/07/28 11:10:24;;;;;;;2.05;1.95;;;;;;;23.46;90.16;98564.94;5050150;28;20108;-86
2023/07/28 11:12:52;;;;;;;2.13;2.03;;;;;;;23.27;90.28;98533.56;5051502;28;20029;-88
2023/07/28 11:15:18;;;;;;;2.13;2.03;;;;;;;23.51;90.92;98573.22;5051242;28;20380;-89
2023/07/28 11:17:48;;;;;;;2.33;2.03;;;;;;;23.44;91.17;98563.47;5050405;28;20564;-89
2023/07/28 11:20:18;;;;;;;1.75;1.65;;;;;;;23.55;90.82;98563.03;5051515;28;20566;-89
2023/07/28 11:22:58;;;;;;;2.33;2.00;;;;;;;23.66;89.79;98549.31;5050260;28;20025;-89
2023/07/28 11:25:26;;;;;;;1.92;1.77;;;;;;;23.90;90.20;98556.22;5049963;28;20025;-89